CDT,Max TemperatureF,Mean TemperatureF,Min TemperatureF,Max Dew PointF,MeanDew PointF,Min DewpointF,Max Humidity, Mean Humidity, Min Humidity, Max Sea Level PressureIn, Mean Sea Level PressureIn, Min Sea Level PressureIn, Max VisibilityMiles, Mean VisibilityMiles, Min VisibilityMiles, Max Wind SpeedMPH, Mean Wind SpeedMPH, Max Gust SpeedMPH,PrecipitationIn, CloudCover, Events, WindDirDegrees
2013-3-1,37,34,30,28,26,23,87,74,56,30.20,30.15,30.12,10,10,10,18,9,20,0.00,6,,308
2013-3-2,35,30,26,27,21,18,86,66,48,30.27,30.24,30.18,10,10,10,20,12,24,0.00,4,,325
2013-3-3,42,32,23,32,24,18,86,69,49,30.25,30.15,30.03,10,10,10,14,5,17,0.00,1,,168
2013-3-4,57,46,35,48,39,28,93,75,61,30.03,29.84,29.73,10,10,5,22,10,28,0.01,5,,138
2013-3-5,48,40,33,46,32,19,93,68,34,30.21,30.00,29.75,10,10,5,31,15,37,0.19,4,,310
2013-3-6,46,40,33,34,25,19,81,59,43,30.38,30.32,30.22,10,10,10,23,12,31,0.00,3,,340
2013-3-7,50,41,32,37,32,28,93,75,54,30.42,30.35,30.30,10,10,7,9,5,,0.00,0,,83
2013-3-8,55,44,32,41,35,30,93,72,44,30.41,30.31,30.17,10,9,3,10,7,,0.00,0,,58
2013-3-9,69,56,44,48,41,37,81,59,35,30.16,30.02,29.87,10,9,1,24,10,31,0.01,3,,140
2013-3-10,60,52,44,55,49,37,100,83,55,29.87,29.78,29.72,10,10,5,28,16,36,0.91,5,,177
2013-3-11,44,40,35,37,31,28,87,71,53,30.06,29.92,29.83,10,10,10,22,13,29,0.00,5,,289
2013-3-12,57,42,28,36,28,25,93,60,31,30.24,30.14,30.05,10,10,10,15,6,20,0.00,0,,287
2013-3-13,51,42,33,28,23,19,75,51,28,30.44,30.38,30.28,10,10,10,20,10,24,0.00,0,,325
2013-3-14,62,46,30,43,34,27,93,65,42,30.42,30.28,30.11,10,10,10,21,9,25,0.00,1,,158
2013-3-15,78,60,42,55,47,37,87,64,39,30.11,29.96,29.82,10,10,10,23,12,30,0.00,0,,193
2013-3-16,75,60,46,55,49,39,77,64,41,29.95,29.84,29.78,10,9,5,26,14,31,0.00,2,,170
2013-3-17,46,42,39,43,39,36,100,89,76,30.01,29.88,29.71,10,7,2,22,15,24,0.05,7,Thunderstorm,38
2013-3-18,55,48,41,45,41,34,100,80,54,30.06,29.83,29.70,10,10,4,22,9,25,0.00,5,,311
2013-3-19,53,43,33,36,28,19,93,59,28,30.24,30.17,30.06,10,9,1,10,6,,0.00,1,,18
2013-3-20,53,42,30,36,24,9,81,54,19,30.29,30.20,30.11,10,10,8,26,9,38,0.00,1,,312
2013-3-21,41,34,26,30,20,12,100,62,36,30.15,30.08,29.99,10,7,0,10,6,,0.23,4,,46
2013-3-22,39,34,30,36,32,28,100,89,75,30.02,29.97,29.93,10,7,1,13,9,,0.48,8,,34
2013-3-23,48,42,37,43,38,34,93,82,71,29.98,29.87,29.71,10,10,4,20,10,23,0.16,8,,29
2013-3-24,46,40,35,45,37,25,100,83,60,29.98,29.71,29.56,10,7,1,29,13,43,0.13,8,,304
2013-3-25,37,34,30,27,23,19,75,64,56,30.27,30.11,29.98,10,10,10,26,18,33,0.00,6,,293
2013-3-26,48,38,28,28,24,21,86,60,34,30.39,30.33,30.27,10,10,10,16,9,17,0.00,1,,302
2013-3-27,51,40,28,39,30,25,93,68,44,30.42,30.36,30.29,10,10,8,10,5,16,0.00,0,,114
2013-3-28,64,52,41,50,39,34,82,65,39,30.35,30.28,30.21,10,10,10,13,7,16,0.00,5,,133
2013-3-29,60,53,46,52,46,43,100,81,67,30.26,30.20,30.16,10,9,2,15,8,29,0.08,4,,135
2013-3-30,55,50,44,54,48,43,100,96,87,30.21,30.07,29.93,10,4,0,13,5,,0.15,7,,95
2013-3-31,62,55,48,54,51,48,100,87,59,29.99,29.92,29.86,10,7,0,10,5,,0.27,3,,160